createdAt,value
2023-04-20T00:01:24.857Z,8.45
2023-04-20T00:03:52.080Z,8.10
2023-04-20T00:06:21.785Z,11.55
2023-04-20T00:08:48.809Z,7.70
2023-04-20T00:11:15.643Z,9.82
2023-04-20T00:13:42.698Z,10.18
2023-04-20T00:16:09.539Z,11.57
2023-04-20T00:18:36.324Z,7.53
2023-04-20T00:21:03.276Z,9.55
2023-04-20T00:23:30.204Z,13.10
2023-04-20T00:25:57.042Z,10.35
2023-04-20T00:28:23.897Z,15.60
2023-04-20T00:30:50.826Z,12.30
2023-04-20T00:33:17.592Z,8.30
2023-04-20T00:35:44.399Z,8.98
2023-04-20T00:38:11.221Z,12.90
2023-04-20T00:40:38.115Z,7.53
2023-04-20T00:43:14.781Z,9.13
2023-04-20T00:45:41.604Z,8.95
2023-04-20T00:48:08.574Z,11.63
2023-04-20T00:50:35.962Z,8.20
2023-04-20T00:53:03.354Z,9.15
2023-04-20T00:55:30.486Z,10.02
2023-04-20T00:57:58.330Z,10.43
2023-04-20T01:00:25.907Z,12.50
2023-04-20T01:02:52.905Z,11.05
2023-04-20T01:05:20.526Z,14.18
2023-04-20T01:07:47.357Z,12.00
2023-04-20T01:10:14.217Z,16.05
2023-04-20T01:12:41.390Z,10.20
2023-04-20T01:15:09.290Z,10.35
2023-04-20T01:17:39.779Z,14.57
2023-04-20T01:20:12.611Z,14.73
2023-04-20T01:22:47.567Z,11.77
2023-04-20T01:25:15.408Z,11.23
2023-04-20T01:27:42.595Z,11.27
2023-04-20T01:30:10.696Z,11.45
2023-04-20T01:32:37.747Z,14.65
2023-04-20T01:35:05.379Z,13.25
2023-04-20T01:37:32.797Z,11.45
2023-04-20T01:39:59.736Z,12.25
2023-04-20T01:42:26.589Z,14.48
2023-04-20T01:44:53.472Z,12.05
2023-04-20T01:47:20.314Z,10.30
2023-04-20T01:49:47.170Z,12.18
2023-04-20T01:52:14.073Z,17.45
2023-04-20T01:54:41.237Z,16.35
2023-04-20T01:57:08.069Z,12.13
2023-04-20T01:59:34.967Z,10.98
2023-04-20T02:02:01.914Z,12.20
2023-04-20T02:04:28.760Z,10.75
2023-04-20T02:06:55.755Z,9.63
2023-04-20T02:09:22.600Z,11.90
2023-04-20T02:11:49.388Z,9.85
2023-04-20T02:14:16.255Z,13.27
2023-04-20T02:16:43.117Z,12.00
2023-04-20T02:19:10.066Z,13.45
2023-04-20T02:21:36.886Z,13.18
2023-04-20T02:24:03.989Z,9.50
2023-04-20T02:26:30.931Z,12.35
2023-04-20T02:28:57.723Z,12.30
2023-04-20T02:31:24.589Z,12.27
2023-04-20T02:33:51.581Z,11.00
2023-04-20T02:36:18.434Z,15.38
2023-04-20T02:38:45.276Z,11.50
2023-04-20T02:41:12.040Z,10.65
2023-04-20T02:43:38.903Z,12.23
2023-04-20T02:46:05.800Z,12.82
2023-04-20T02:48:32.628Z,13.05
2023-04-20T02:50:59.436Z,10.35
2023-04-20T02:53:26.356Z,16.05
2023-04-20T02:55:53.158Z,10.82
2023-04-20T02:58:19.943Z,10.40
2023-04-20T03:00:47.089Z,9.07
2023-04-20T03:03:15.044Z,14.95
2023-04-20T03:05:42.448Z,10.07
2023-04-20T03:08:09.372Z,11.27
2023-04-20T03:10:36.183Z,7.93
2023-04-20T03:13:02.984Z,11.65
2023-04-20T03:15:29.769Z,10.25
2023-04-20T03:17:56.686Z,8.73
2023-04-20T03:20:24.249Z,8.45
2023-04-20T03:22:51.178Z,9.43
2023-04-20T03:25:18.047Z,7.00
2023-04-20T03:27:47.294Z,10.00
2023-04-20T03:30:14.983Z,7.72
2023-04-20T03:32:42.413Z,10.77
2023-04-20T03:35:09.588Z,8.23
2023-04-20T03:37:39.529Z,8.30
2023-04-20T03:40:07.289Z,13.48
2023-04-20T03:42:34.108Z,9.60
2023-04-20T03:45:00.926Z,8.05
2023-04-20T03:47:27.817Z,11.07
2023-04-20T03:49:54.704Z,9.20
2023-04-20T03:52:21.840Z,9.10
2023-04-20T03:54:48.640Z,8.23
2023-04-20T03:57:15.505Z,9.85
2023-04-20T03:59:42.331Z,9.43
2023-04-20T04:02:10.969Z,7.63
2023-04-20T04:04:38.012Z,8.43
2023-04-20T04:07:04.997Z,13.60
2023-04-20T04:09:31.754Z,6.85
2023-04-20T04:11:58.578Z,10.52
2023-04-20T04:14:25.379Z,14.05
2023-04-20T04:16:52.260Z,9.15
2023-04-20T04:19:19.408Z,8.60
2023-04-20T04:21:46.370Z,10.45
2023-04-20T04:24:13.224Z,13.60
2023-04-20T04:26:40.538Z,10.82
2023-04-20T04:29:07.360Z,10.10
2023-04-20T04:31:34.988Z,14.05
2023-04-20T04:34:02.189Z,8.52
2023-04-20T04:36:28.990Z,14.63
2023-04-20T04:38:55.860Z,9.95
2023-04-20T04:41:23.567Z,13.02
2023-04-20T04:43:50.963Z,9.88
2023-04-20T04:46:18.036Z,9.10
2023-04-20T04:48:45.007Z,10.73
2023-04-20T04:51:11.768Z,11.60
2023-04-20T04:53:38.562Z,11.35
2023-04-20T04:56:06.913Z,14.02
2023-04-20T04:58:33.867Z,13.00
2023-04-20T05:01:00.709Z,10.25
2023-04-20T05:03:27.574Z,11.25
2023-04-20T05:05:54.517Z,14.95
2023-04-20T05:08:24.331Z,12.45
2023-04-20T05:10:51.131Z,12.18
2023-04-20T05:13:17.982Z,12.30
2023-04-20T05:15:44.830Z,10.07
2023-04-20T05:18:11.707Z,12.30
2023-04-20T05:20:38.667Z,11.98
2023-04-20T05:23:05.450Z,13.52
2023-04-20T05:25:32.915Z,12.23
2023-04-20T05:27:59.919Z,9.60
2023-04-20T05:30:26.862Z,9.93
2023-04-20T05:32:53.712Z,19.13
2023-04-20T05:35:21.628Z,16.70
2023-04-20T05:37:48.911Z,19.50
2023-04-20T05:40:15.981Z,18.25
2023-04-20T05:42:42.925Z,17.25
2023-04-20T05:45:10.491Z,11.30
2023-04-20T05:47:37.320Z,12.57
2023-04-20T05:50:04.823Z,12.25
2023-04-20T05:52:31.795Z,16.15
2023-04-20T05:54:59.532Z,17.58
2023-04-20T05:57:26.385Z,10.90
2023-04-20T05:59:55.398Z,21.33
2023-04-20T06:02:22.480Z,14.70
2023-04-20T06:04:49.544Z,11.00
2023-04-20T06:07:16.843Z,13.25
2023-04-20T06:09:43.671Z,11.43
2023-04-20T06:12:10.473Z,13.93
2023-04-20T06:14:37.274Z,13.70
2023-04-20T06:17:04.086Z,21.40
2023-04-20T06:19:30.997Z,14.52
2023-04-20T06:22:00.282Z,15.27
2023-04-20T06:24:28.007Z,15.30
2023-04-20T06:26:55.058Z,13.20
2023-04-20T06:29:21.842Z,27.52
2023-04-20T06:31:48.755Z,36.90
2023-04-20T06:34:16.264Z,38.42
2023-04-20T06:36:43.789Z,25.92
2023-04-20T06:39:13.670Z,43.22
2023-04-20T06:41:40.645Z,28.80
2023-04-20T06:44:07.559Z,19.23
2023-04-20T06:46:34.457Z,42.88
2023-04-20T06:49:01.495Z,47.90
2023-04-20T06:51:29.239Z,16.40
2023-04-20T06:53:56.693Z,16.83
2023-04-20T06:56:23.536Z,29.45
2023-04-20T06:58:50.398Z,13.77
2023-04-20T07:01:17.307Z,17.35
2023-04-20T07:03:46.710Z,26.30
2023-04-20T07:06:13.892Z,18.23
2023-04-20T07:08:41.153Z,19.40
2023-04-20T07:11:07.984Z,20.70
2023-04-20T07:13:34.763Z,17.67
2023-04-20T07:16:01.636Z,16.08
2023-04-20T07:18:28.535Z,15.55
2023-04-20T07:20:55.348Z,16.77
2023-04-20T07:23:22.376Z,12.88
2023-04-20T07:25:49.142Z,22.02
2023-04-20T07:28:16.062Z,17.98
2023-04-20T07:30:42.860Z,22.23
2023-04-20T07:33:11.198Z,20.60
2023-04-20T07:35:38.166Z,20.08
2023-04-20T07:38:04.996Z,17.80
2023-04-20T07:40:31.859Z,26.00
2023-04-20T07:42:58.622Z,15.90
2023-04-20T07:45:25.685Z,16.38
2023-04-20T07:47:54.152Z,15.48
2023-04-20T07:50:21.741Z,13.80
2023-04-20T07:52:48.602Z,14.50
2023-04-20T07:55:15.888Z,11.05
2023-04-20T07:57:42.778Z,16.13
2023-04-20T08:00:10.273Z,22.58
2023-04-20T08:02:37.127Z,15.35
2023-04-20T08:05:04.401Z,15.65
2023-04-20T08:07:31.728Z,19.35
2023-04-20T08:09:58.646Z,14.20
2023-04-20T08:12:25.407Z,13.48
2023-04-20T08:14:52.274Z,14.23
2023-04-20T08:17:19.047Z,13.38
2023-04-20T08:19:46.158Z,14.43
2023-04-20T08:22:13.108Z,12.35
2023-04-20T08:24:39.899Z,12.75
2023-04-20T08:27:08.972Z,12.13
2023-04-20T08:29:36.695Z,17.63
2023-04-20T08:32:04.054Z,14.00
2023-04-20T08:34:30.901Z,14.82
2023-04-20T08:36:57.661Z,16.05
2023-04-20T08:39:24.566Z,13.43
2023-04-20T08:41:55.635Z,13.60
2023-04-20T08:44:23.174Z,13.15
2023-04-20T08:46:51.047Z,15.82
2023-04-20T08:49:19.620Z,18.05
2023-04-20T08:51:49.256Z,9.95
2023-04-20T08:54:16.926Z,14.25
2023-04-20T08:56:46.650Z,12.15
2023-04-20T08:59:14.663Z,12.95
2023-04-20T09:01:45.492Z,12.32
2023-04-20T09:04:22.593Z,13.77
2023-04-20T09:06:51.897Z,13.68
2023-04-20T09:09:20.521Z,16.63
2023-04-20T09:11:48.321Z,15.43
2023-04-20T09:14:16.982Z,13.05
2023-04-20T09:16:52.411Z,11.48
2023-04-20T09:19:23.879Z,14.60
2023-04-20T09:21:52.293Z,14.07
2023-04-20T09:24:20.920Z,11.55
2023-04-20T09:26:47.724Z,12.73
2023-04-20T09:29:23.391Z,13.07
2023-04-20T09:31:50.682Z,14.23
2023-04-20T09:34:18.340Z,12.90
2023-04-20T09:36:50.691Z,10.68
2023-04-20T09:39:19.708Z,12.18
2023-04-20T09:41:47.317Z,10.40
2023-04-20T09:44:16.700Z,20.15
2023-04-20T09:46:44.570Z,12.05
2023-04-20T09:49:15.166Z,10.70
2023-04-20T09:51:47.003Z,11.95
2023-04-20T09:54:15.933Z,11.23
2023-04-20T09:56:43.341Z,14.80
2023-04-20T09:59:10.287Z,11.18
2023-04-20T10:01:38.320Z,11.43
2023-04-20T10:04:11.010Z,10.98
2023-04-20T10:06:38.619Z,11.77
2023-04-20T10:09:07.871Z,14.10
2023-04-20T10:11:49.026Z,12.18
2023-04-20T10:14:26.299Z,11.55
2023-04-20T10:17:09.319Z,10.23
2023-04-20T10:19:47.003Z,12.90
2023-04-20T10:22:32.826Z,10.57
2023-04-20T10:25:01.358Z,13.32
2023-04-20T10:27:28.533Z,13.52
2023-04-20T10:29:55.394Z,9.85
2023-04-20T10:32:27.512Z,13.80
2023-04-20T10:35:06.593Z,14.40
2023-04-20T10:37:34.142Z,13.50
2023-04-20T10:40:01.132Z,9.90
2023-04-20T10:42:29.796Z,11.00
2023-04-20T10:44:57.086Z,10.70
2023-04-20T10:47:29.682Z,11.82
2023-04-20T10:50:10.068Z,11.93
2023-04-20T10:52:41.704Z,13.70
2023-04-20T10:55:28.821Z,11.07
2023-04-20T10:57:55.760Z,12.02
2023-04-20T11:00:25.941Z,9.50
2023-04-20T11:02:54.613Z,10.80
2023-04-20T11:05:23.330Z,8.30
2023-04-20T11:07:58.841Z,8.60
2023-04-20T11:10:40.879Z,8.85
2023-04-20T11:13:18.730Z,10.68
2023-04-20T11:15:45.558Z,9.85
2023-04-20T11:18:12.591Z,12.63
2023-04-20T11:20:53.643Z,9.23
2023-04-20T11:23:21.898Z,12.13
2023-04-20T11:25:56.539Z,11.43
2023-04-20T11:28:23.960Z,9.05
2023-04-20T11:30:51.155Z,12.65
2023-04-20T11:33:29.033Z,13.68
2023-04-20T11:35:59.262Z,11.43
2023-04-20T11:38:32.544Z,10.93
2023-04-20T11:41:04.499Z,10.48
2023-04-20T11:43:32.383Z,15.10
2023-04-20T11:46:02.829Z,13.25
2023-04-20T11:48:33.061Z,9.90
2023-04-20T11:50:59.863Z,12.02
2023-04-20T11:53:26.894Z,12.18
2023-04-20T11:55:53.811Z,7.82
2023-04-20T11:58:20.665Z,11.90
2023-04-20T12:00:47.436Z,10.32
2023-04-20T12:03:14.716Z,8.98
2023-04-20T12:05:43.284Z,7.07
2023-04-20T12:08:10.220Z,7.18
2023-04-20T12:10:37.090Z,12.73
2023-04-20T12:13:03.950Z,10.88
2023-04-20T12:15:30.732Z,8.40
2023-04-20T12:17:57.990Z,6.82
2023-04-20T12:20:24.811Z,7.30
2023-04-20T12:22:51.560Z,11.10
2023-04-20T12:25:18.427Z,10.73
2023-04-20T12:27:45.263Z,7.38
2023-04-20T12:30:12.769Z,11.45
2023-04-20T12:32:39.720Z,8.60
2023-04-20T12:35:08.535Z,8.75
2023-04-20T12:37:35.607Z,11.45
2023-04-20T12:40:02.414Z,11.15
2023-04-20T12:42:29.460Z,11.52
2023-04-20T12:44:56.290Z,13.40
2023-04-20T12:47:23.124Z,13.50
2023-04-20T12:49:49.954Z,12.02
2023-04-20T12:52:16.773Z,16.55
2023-04-20T12:54:44.113Z,19.92
2023-04-20T12:57:11.290Z,13.60
2023-04-20T12:59:38.080Z,11.57
2023-04-20T13:02:04.986Z,12.70
2023-04-20T13:04:32.046Z,16.27
2023-04-20T13:06:58.980Z,10.55
2023-04-20T13:09:27.187Z,12.88
2023-04-20T13:11:54.216Z,12.63
2023-04-20T13:14:21.539Z,11.43
2023-04-20T13:16:48.781Z,13.95
2023-04-20T13:19:15.769Z,12.45
2023-04-20T13:21:42.682Z,11.05
2023-04-20T13:24:09.569Z,15.30
2023-04-20T13:26:36.847Z,19.60
2023-04-20T13:29:03.730Z,12.05
2023-04-20T13:31:31.312Z,13.90
2023-04-20T13:33:58.253Z,15.38
2023-04-20T13:36:25.255Z,13.95
2023-04-20T13:38:53.494Z,11.82
2023-04-20T13:41:20.397Z,12.70
2023-04-20T13:43:47.164Z,14.68
2023-04-20T13:46:15.368Z,12.27
2023-04-20T13:48:42.448Z,12.35
2023-04-20T13:51:09.331Z,13.15
2023-04-20T13:53:36.383Z,12.68
2023-04-20T13:56:04.012Z,11.43
2023-04-20T13:58:30.790Z,14.30
2023-04-20T14:00:57.681Z,16.98
2023-04-20T14:03:26.344Z,13.70
2023-04-20T14:05:53.539Z,13.77
2023-04-20T14:08:20.745Z,13.68
2023-04-20T14:10:47.554Z,12.68
2023-04-20T14:13:14.335Z,14.73
2023-04-20T14:15:41.800Z,16.13
2023-04-20T14:18:08.685Z,19.40
2023-04-20T14:20:35.580Z,12.57
2023-04-20T14:23:02.414Z,18.15
2023-04-20T14:25:29.269Z,16.48
2023-04-20T14:27:56.147Z,16.65
2023-04-20T14:30:23.215Z,16.27
2023-04-20T14:32:57.829Z,15.75
2023-04-20T14:35:26.296Z,15.60
2023-04-20T14:37:53.288Z,16.77
2023-04-20T14:40:20.774Z,13.55
2023-04-20T14:42:47.859Z,10.68
2023-04-20T14:45:14.818Z,12.30
2023-04-20T14:47:41.627Z,9.68
2023-04-20T14:50:09.450Z,12.07
2023-04-20T14:52:36.360Z,12.07
2023-04-20T14:55:04.192Z,11.80
2023-04-20T14:57:31.605Z,10.93
2023-04-20T14:59:58.423Z,11.98
2023-04-20T15:02:25.576Z,12.05
2023-04-20T15:04:52.825Z,11.45
2023-04-20T15:07:19.764Z,11.18
2023-04-20T15:09:46.703Z,14.48
2023-04-20T15:12:13.493Z,14.25
2023-04-20T15:14:40.325Z,12.15
2023-04-20T15:17:07.125Z,12.48
2023-04-20T15:19:33.939Z,11.98
2023-04-20T15:22:01.212Z,13.73
2023-04-20T15:24:28.023Z,14.27
2023-04-20T15:26:54.888Z,13.00
2023-04-20T15:29:21.960Z,9.48
2023-04-20T15:31:48.828Z,15.07
2023-04-20T15:34:17.295Z,12.48
2023-04-20T15:36:44.874Z,10.15
2023-04-20T15:39:12.467Z,11.02
2023-04-20T15:41:39.321Z,15.13
2023-04-20T15:44:06.281Z,11.57
2023-04-20T15:46:33.307Z,12.38
2023-04-20T15:49:00.244Z,8.45
2023-04-20T15:51:28.064Z,10.77
2023-04-20T15:53:54.919Z,10.90
2023-04-20T15:56:24.776Z,10.95
2023-04-20T15:58:52.205Z,14.27
2023-04-20T16:01:19.891Z,14.70
2023-04-20T16:03:48.308Z,9.73
2023-04-20T16:06:15.841Z,11.65
2023-04-20T16:08:42.659Z,12.88
2023-04-20T16:11:09.485Z,9.90
2023-04-20T16:13:36.871Z,10.77
2023-04-20T16:16:03.892Z,14.35
2023-04-20T16:18:32.218Z,12.20
2023-04-20T16:20:59.274Z,13.52
2023-04-20T16:23:26.192Z,12.93
2023-04-20T16:25:53.031Z,16.52
2023-04-20T16:28:19.854Z,11.98
2023-04-20T16:30:46.620Z,13.18
2023-04-20T16:33:14.038Z,11.60
2023-04-20T16:35:41.179Z,13.13
2023-04-20T16:38:10.401Z,11.85
2023-04-20T16:40:37.571Z,12.70
2023-04-20T16:43:04.569Z,15.32
2023-04-20T16:45:32.824Z,12.88
2023-04-20T16:47:59.777Z,17.00
2023-04-20T16:50:26.694Z,14.63
2023-04-20T16:52:53.701Z,11.40
2023-04-20T16:55:20.746Z,15.10
2023-04-20T16:57:47.539Z,14.77
2023-04-20T17:00:14.943Z,12.95
2023-04-20T17:02:41.937Z,11.73
2023-04-20T17:05:09.200Z,11.60
2023-04-20T17:07:37.048Z,11.95
2023-04-20T17:10:04.785Z,15.27
2023-04-20T17:12:31.609Z,13.27
2023-04-20T17:14:58.390Z,14.93
2023-04-20T17:17:26.184Z,15.23
2023-04-20T17:19:54.098Z,13.43
2023-04-20T17:22:21.411Z,15.80
2023-04-20T17:24:48.189Z,21.90
2023-04-20T17:27:16.113Z,12.50
2023-04-20T17:29:45.326Z,15.90
2023-04-20T17:32:12.402Z,16.50
2023-04-20T17:34:40.106Z,14.93
2023-04-20T17:37:07.217Z,14.73
2023-04-20T17:39:33.988Z,16.58
2023-04-20T17:42:01.468Z,19.42
2023-04-20T17:44:28.318Z,16.75
2023-04-20T17:46:55.249Z,15.20
2023-04-20T17:49:22.016Z,16.42
2023-04-20T17:51:48.834Z,16.10
2023-04-20T17:54:16.024Z,16.00
2023-04-20T17:56:43.109Z,15.80
2023-04-20T17:59:11.823Z,16.27
2023-04-20T18:01:38.999Z,21.05
2023-04-20T18:04:06.326Z,15.60
2023-04-20T18:06:33.875Z,16.80
2023-04-20T18:09:01.300Z,18.77
2023-04-20T18:11:28.266Z,18.30
2023-04-20T18:13:55.181Z,19.50
2023-04-20T18:16:22.058Z,19.52
2023-04-20T18:18:50.467Z,21.08
2023-04-20T18:21:17.475Z,17.77
2023-04-20T18:23:44.253Z,20.63
2023-04-20T18:26:17.197Z,25.05
2023-04-20T18:28:47.703Z,23.40
2023-04-20T18:31:14.575Z,23.60
2023-04-20T18:33:41.410Z,23.50
2023-04-20T18:36:08.262Z,23.40
2023-04-20T18:38:35.352Z,27.20
2023-04-20T18:41:02.843Z,36.70
2023-04-20T18:43:29.678Z,27.65
2023-04-20T18:45:56.439Z,24.75
2023-04-20T18:48:23.230Z,20.70
2023-04-20T18:50:49.997Z,19.45
2023-04-20T18:53:16.938Z,53.92
2023-04-20T18:55:43.868Z,32.95
2023-04-20T18:58:10.689Z,24.13
2023-04-20T19:00:38.090Z,22.60
2023-04-20T19:03:05.944Z,21.08
2023-04-20T19:05:33.125Z,24.73
2023-04-20T19:07:59.908Z,30.90
2023-04-20T19:10:26.774Z,26.15
2023-04-20T19:12:53.657Z,24.52
2023-04-20T19:15:25.623Z,24.42
2023-04-20T19:17:56.368Z,27.65
2023-04-20T19:20:24.134Z,25.63
2023-04-20T19:22:50.975Z,24.35
2023-04-20T19:25:18.111Z,24.13
2023-04-20T19:27:44.978Z,23.40
2023-04-20T19:30:12.054Z,25.42
2023-04-20T19:32:38.918Z,25.15
2023-04-20T19:35:06.161Z,25.17
2023-04-20T19:37:33.214Z,30.60
2023-04-20T19:40:00.000Z,22.00
2023-04-20T19:42:26.808Z,21.73
2023-04-20T19:44:53.644Z,21.27
2023-04-20T19:47:20.865Z,24.75
2023-04-20T19:49:48.206Z,25.75
2023-04-20T19:52:15.269Z,24.85
2023-04-20T19:54:42.421Z,25.65
2023-04-20T19:57:09.630Z,34.22
2023-04-20T19:59:38.988Z,30.05
2023-04-20T20:02:06.193Z,30.90
2023-04-20T20:04:33.747Z,32.95
2023-04-20T20:07:00.627Z,30.30
2023-04-20T20:09:27.464Z,31.63
2023-04-20T20:11:54.360Z,34.42
2023-04-20T20:14:21.382Z,25.63
2023-04-20T20:16:48.226Z,26.08
2023-04-20T20:19:16.013Z,26.23
2023-04-20T20:21:44.190Z,28.02
2023-04-20T20:24:11.064Z,26.92
2023-04-20T20:26:37.892Z,23.35
2023-04-20T20:29:04.685Z,26.67
2023-04-20T20:31:31.528Z,34.53
2023-04-20T20:33:58.378Z,28.10
2023-04-20T20:36:25.748Z,25.65
2023-04-20T20:38:53.436Z,21.67
2023-04-20T20:41:20.916Z,26.17
2023-04-20T20:43:49.719Z,24.02
2023-04-20T20:46:17.140Z,24.70
2023-04-20T20:48:44.022Z,25.15
2023-04-20T20:51:11.716Z,27.00
2023-04-20T20:53:38.555Z,27.02
2023-04-20T20:56:05.513Z,32.80
2023-04-20T20:58:32.379Z,32.45
2023-04-20T21:00:59.219Z,31.10
2023-04-20T21:03:26.189Z,34.05
2023-04-20T21:05:53.253Z,32.70
2023-04-20T21:08:20.104Z,28.80
2023-04-20T21:10:47.117Z,34.03
2023-04-20T21:13:13.970Z,38.58
2023-04-20T21:15:40.955Z,32.35
2023-04-20T21:18:07.807Z,31.98
2023-04-20T21:20:34.842Z,31.45
2023-04-20T21:23:01.817Z,34.40
2023-04-20T21:25:28.697Z,28.33
2023-04-20T21:27:55.564Z,32.55
2023-04-20T21:30:22.389Z,28.95
2023-04-20T21:32:49.209Z,27.77
2023-04-20T21:35:16.063Z,31.40
2023-04-20T21:37:43.715Z,30.77
2023-04-20T21:40:11.837Z,28.88
2023-04-20T21:42:38.733Z,27.15
2023-04-20T21:45:05.969Z,28.77
2023-04-20T21:47:32.795Z,28.48
2023-04-20T21:50:00.035Z,25.35
2023-04-20T21:52:26.992Z,30.02
2023-04-20T21:54:53.858Z,28.63
2023-04-20T21:57:20.632Z,28.95
2023-04-20T21:59:47.423Z,24.40
2023-04-20T22:02:14.305Z,32.35
2023-04-20T22:04:41.315Z,30.60
2023-04-20T22:07:09.804Z,31.33
2023-04-20T22:09:36.627Z,27.30
2023-04-20T22:12:04.304Z,29.40
2023-04-20T22:14:31.274Z,25.45
2023-04-20T22:16:58.073Z,29.67
2023-04-20T22:19:24.952Z,24.83
2023-04-20T22:21:51.719Z,27.77
2023-04-20T22:24:18.470Z,25.25
2023-04-20T22:26:45.335Z,24.42
2023-04-20T22:29:12.119Z,24.45
2023-04-20T22:31:38.982Z,24.92
2023-04-20T22:34:05.774Z,28.83
2023-04-20T22:36:32.627Z,25.73
2023-04-20T22:38:59.443Z,23.02
2023-04-20T22:41:26.260Z,23.92
2023-04-20T22:43:53.023Z,21.75
2023-04-20T22:46:19.833Z,23.00
2023-04-20T22:48:48.497Z,25.60
2023-04-20T22:51:17.261Z,27.35
2023-04-20T22:53:44.651Z,19.23
2023-04-20T22:56:11.500Z,26.27
2023-04-20T22:58:38.307Z,18.98
2023-04-20T23:01:05.360Z,19.55
2023-04-20T23:03:32.812Z,19.65
2023-04-20T23:05:59.784Z,24.50
2023-04-20T23:08:28.079Z,24.17
2023-04-20T23:10:54.910Z,19.95
2023-04-20T23:13:24.590Z,19.38
2023-04-20T23:15:51.571Z,21.65
2023-04-20T23:18:18.592Z,19.55
2023-04-20T23:20:45.385Z,15.98
2023-04-20T23:23:12.151Z,19.10
2023-04-20T23:25:39.013Z,17.92
2023-04-20T23:28:06.061Z,23.38
2023-04-20T23:30:32.939Z,19.92
2023-04-20T23:32:59.919Z,24.50
2023-04-20T23:35:26.809Z,19.63
2023-04-20T23:37:55.233Z,24.50
2023-04-20T23:40:22.133Z,17.52
2023-04-20T23:42:49.110Z,19.10
2023-04-20T23:45:16.118Z,20.48
2023-04-20T23:47:43.010Z,18.00
2023-04-20T23:50:09.961Z,16.25
2023-04-20T23:52:37.014Z,19.13
2023-04-20T23:55:04.789Z,16.73
2023-04-20T23:57:31.587Z,19.42
2023-04-20T23:59:58.468Z,15.52
